sensor_id;sensor_type;location;lat;lon;timestamp;temperature;humidity
60965;DHT22;46834;51.100;6.886;2022-10-13T00:00:45;11.50;50.40
60965;DHT22;46834;51.100;6.886;2022-10-13T00:03:12;11.60;50.50
60965;DHT22;46834;51.100;6.886;2022-10-13T00:05:42;11.60;50.50
60965;DHT22;46834;51.100;6.886;2022-10-13T00:08:10;11.60;50.70
60965;DHT22;46834;51.100;6.886;2022-10-13T00:10:38;11.60;50.50
60965;DHT22;46834;51.100;6.886;2022-10-13T00:13:06;11.60;50.50
60965;DHT22;46834;51.100;6.886;2022-10-13T00:15:37;11.60;50.60
60965;DHT22;46834;51.100;6.886;2022-10-13T00:18:03;11.70;50.80
60965;DHT22;46834;51.100;6.886;2022-10-13T00:20:29;11.70;50.60
60965;DHT22;46834;51.100;6.886;2022-10-13T00:22:55;11.60;50.50
60965;DHT22;46834;51.100;6.886;2022-10-13T00:25:21;11.60;50.50
60965;DHT22;46834;51.100;6.886;2022-10-13T00:27:46;11.60;50.50
60965;DHT22;46834;51.100;6.886;2022-10-13T00:30:12;11.70;50.70
60965;DHT22;46834;51.100;6.886;2022-10-13T00:32:38;11.60;50.60
60965;DHT22;46834;51.100;6.886;2022-10-13T00:35:04;11.70;50.70
60965;DHT22;46834;51.100;6.886;2022-10-13T00:37:30;11.70;50.80
60965;DHT22;46834;51.100;6.886;2022-10-13T00:39:55;11.70;50.80
60965;DHT22;46834;51.100;6.886;2022-10-13T00:42:21;11.60;50.70
60965;DHT22;46834;51.100;6.886;2022-10-13T00:47:41;11.70;51.30
60965;DHT22;46834;51.100;6.886;2022-10-13T00:50:17;11.60;51.00
60965;DHT22;46834;51.100;6.886;2022-10-13T00:52:46;11.70;51.10
60965;DHT22;46834;51.100;6.886;2022-10-13T00:55:17;11.60;50.80
60965;DHT22;46834;51.100;6.886;2022-10-13T00:57:47;11.60;50.90
60965;DHT22;46834;51.100;6.886;2022-10-13T01:00:22;11.60;50.90
60965;DHT22;46834;51.100;6.886;2022-10-13T01:02:50;11.60;50.80
60965;DHT22;46834;51.100;6.886;2022-10-13T01:05:17;11.60;50.90
60965;DHT22;46834;51.100;6.886;2022-10-13T01:07:46;11.50;50.80
60965;DHT22;46834;51.100;6.886;2022-10-13T01:10:18;11.60;50.90
60965;DHT22;46834;51.100;6.886;2022-10-13T01:13:58;11.60;50.90
60965;DHT22;46834;51.100;6.886;2022-10-13T01:24:55;11.60;51.20
60965;DHT22;46834;51.100;6.886;2022-10-13T01:27:49;11.60;50.80
60965;DHT22;46834;51.100;6.886;2022-10-13T01:30:33;11.50;51.30
60965;DHT22;46834;51.100;6.886;2022-10-13T01:33:29;11.50;50.90
60965;DHT22;46834;51.100;6.886;2022-10-13T01:36:15;11.50;51.30
60965;DHT22;46834;51.100;6.886;2022-10-13T01:39:18;11.50;50.80
60965;DHT22;46834;51.100;6.886;2022-10-13T01:41:59;11.50;51.40
60965;DHT22;46834;51.100;6.886;2022-10-13T01:44:39;11.40;51.00
60965;DHT22;46834;51.100;6.886;2022-10-13T01:47:09;11.50;51.00
60965;DHT22;46834;51.100;6.886;2022-10-13T01:49:37;11.40;51.00
60965;DHT22;46834;51.100;6.886;2022-10-13T01:52:09;11.40;51.00
60965;DHT22;46834;51.100;6.886;2022-10-13T01:54:39;11.40;51.20
60965;DHT22;46834;51.100;6.886;2022-10-13T01:59:59;11.40;51.60
60965;DHT22;46834;51.100;6.886;2022-10-13T02:02:33;11.30;51.00
60965;DHT22;46834;51.100;6.886;2022-10-13T02:07:45;11.40;51.10
60965;DHT22;46834;51.100;6.886;2022-10-13T02:10:21;11.40;51.10
60965;DHT22;46834;51.100;6.886;2022-10-13T02:13:01;11.40;51.40
60965;DHT22;46834;51.100;6.886;2022-10-13T02:15:39;11.40;51.60
60965;DHT22;46834;51.100;6.886;2022-10-13T02:18:12;11.40;51.60
60965;DHT22;46834;51.100;6.886;2022-10-13T02:20:41;11.40;51.30
60965;DHT22;46834;51.100;6.886;2022-10-13T02:23:11;11.30;51.10
60965;DHT22;46834;51.100;6.886;2022-10-13T02:25:39;11.30;51.20
60965;DHT22;46834;51.100;6.886;2022-10-13T02:28:07;11.30;51.20
60965;DHT22;46834;51.100;6.886;2022-10-13T02:30:38;11.30;51.30
60965;DHT22;46834;51.100;6.886;2022-10-13T02:33:06;11.30;51.40
60965;DHT22;46834;51.100;6.886;2022-10-13T02:35:32;11.30;51.40
60965;DHT22;46834;51.100;6.886;2022-10-13T02:37:58;11.30;51.30
60965;DHT22;46834;51.100;6.886;2022-10-13T02:40:25;11.30;51.40
60965;DHT22;46834;51.100;6.886;2022-10-13T02:42:51;11.30;51.50
60965;DHT22;46834;51.100;6.886;2022-10-13T02:45:17;11.30;51.40
60965;DHT22;46834;51.100;6.886;2022-10-13T02:47:42;11.30;51.50
60965;DHT22;46834;51.100;6.886;2022-10-13T02:50:08;11.30;51.50
60965;DHT22;46834;51.100;6.886;2022-10-13T02:52:35;11.30;51.50
60965;DHT22;46834;51.100;6.886;2022-10-13T02:55:00;11.40;51.60
60965;DHT22;46834;51.100;6.886;2022-10-13T02:57:26;11.30;51.50
60965;DHT22;46834;51.100;6.886;2022-10-13T02:59:52;11.40;51.60
60965;DHT22;46834;51.100;6.886;2022-10-13T03:02:18;11.30;51.60
60965;DHT22;46834;51.100;6.886;2022-10-13T03:04:44;11.30;51.50
60965;DHT22;46834;51.100;6.886;2022-10-13T03:07:09;11.40;51.70
60965;DHT22;46834;51.100;6.886;2022-10-13T03:09:35;11.40;51.60
60965;DHT22;46834;51.100;6.886;2022-10-13T03:12:01;11.40;51.60
60965;DHT22;46834;51.100;6.886;2022-10-13T03:14:27;11.40;51.60
60965;DHT22;46834;51.100;6.886;2022-10-13T03:16:53;11.40;51.70
60965;DHT22;46834;51.100;6.886;2022-10-13T03:19:18;11.40;51.70
60965;DHT22;46834;51.100;6.886;2022-10-13T03:21:45;11.40;51.70
60965;DHT22;46834;51.100;6.886;2022-10-13T03:24:11;11.40;51.70
60965;DHT22;46834;51.100;6.886;2022-10-13T03:26:37;11.40;51.70
60965;DHT22;46834;51.100;6.886;2022-10-13T03:29:03;11.40;51.70
60965;DHT22;46834;51.100;6.886;2022-10-13T03:31:29;11.40;51.80
60965;DHT22;46834;51.100;6.886;2022-10-13T03:33:54;11.40;51.80
60965;DHT22;46834;51.100;6.886;2022-10-13T03:36:20;11.40;51.80
60965;DHT22;46834;51.100;6.886;2022-10-13T03:38:46;11.40;51.80
60965;DHT22;46834;51.100;6.886;2022-10-13T03:41:14;11.40;51.80
60965;DHT22;46834;51.100;6.886;2022-10-13T03:43:43;11.40;51.90
60965;DHT22;46834;51.100;6.886;2022-10-13T03:46:11;11.40;51.80
60965;DHT22;46834;51.100;6.886;2022-10-13T03:48:39;11.40;51.90
60965;DHT22;46834;51.100;6.886;2022-10-13T03:51:06;11.40;51.80
60965;DHT22;46834;51.100;6.886;2022-10-13T03:53:34;11.40;51.90
60965;DHT22;46834;51.100;6.886;2022-10-13T03:56:00;11.40;51.80
60965;DHT22;46834;51.100;6.886;2022-10-13T03:58:26;11.40;51.90
60965;DHT22;46834;51.100;6.886;2022-10-13T04:00:55;11.40;51.90
60965;DHT22;46834;51.100;6.886;2022-10-13T04:03:22;11.40;51.90
60965;DHT22;46834;51.100;6.886;2022-10-13T04:05:49;11.40;52.00
60965;DHT22;46834;51.100;6.886;2022-10-13T04:08:14;11.40;52.00
60965;DHT22;46834;51.100;6.886;2022-10-13T04:10:40;11.40;52.00
60965;DHT22;46834;51.100;6.886;2022-10-13T04:13:07;11.40;52.00
60965;DHT22;46834;51.100;6.886;2022-10-13T04:15:37;11.40;52.00
60965;DHT22;46834;51.100;6.886;2022-10-13T04:18:05;11.40;52.20
60965;DHT22;46834;51.100;6.886;2022-10-13T04:20:36;11.40;52.10
60965;DHT22;46834;51.100;6.886;2022-10-13T04:23:03;11.40;52.30
60965;DHT22;46834;51.100;6.886;2022-10-13T04:25:28;11.40;52.00
60965;DHT22;46834;51.100;6.886;2022-10-13T04:27:54;11.40;52.10
60965;DHT22;46834;51.100;6.886;2022-10-13T04:30:20;11.30;52.00
60965;DHT22;46834;51.100;6.886;2022-10-13T04:32:45;11.40;52.10
60965;DHT22;46834;51.100;6.886;2022-10-13T04:35:11;11.30;52.10
60965;DHT22;46834;51.100;6.886;2022-10-13T04:37:37;11.40;52.20
60965;DHT22;46834;51.100;6.886;2022-10-13T04:40:02;11.40;52.20
60965;DHT22;46834;51.100;6.886;2022-10-13T04:42:28;11.40;52.20
60965;DHT22;46834;51.100;6.886;2022-10-13T04:44:54;11.30;52.10
60965;DHT22;46834;51.100;6.886;2022-10-13T04:47:20;11.40;52.20
60965;DHT22;46834;51.100;6.886;2022-10-13T04:49:45;11.40;52.20
60965;DHT22;46834;51.100;6.886;2022-10-13T04:52:11;11.40;52.30
60965;DHT22;46834;51.100;6.886;2022-10-13T04:54:36;11.40;52.30
60965;DHT22;46834;51.100;6.886;2022-10-13T04:57:02;11.40;52.30
60965;DHT22;46834;51.100;6.886;2022-10-13T04:59:28;11.40;52.30
60965;DHT22;46834;51.100;6.886;2022-10-13T05:01:53;11.40;52.30
60965;DHT22;46834;51.100;6.886;2022-10-13T05:04:19;11.40;52.20
60965;DHT22;46834;51.100;6.886;2022-10-13T05:06:45;11.40;52.20
60965;DHT22;46834;51.100;6.886;2022-10-13T05:09:13;11.40;52.30
60965;DHT22;46834;51.100;6.886;2022-10-13T05:11:40;11.40;52.40
60965;DHT22;46834;51.100;6.886;2022-10-13T05:14:06;11.50;52.40
60965;DHT22;46834;51.100;6.886;2022-10-13T05:16:31;11.50;52.40
60965;DHT22;46834;51.100;6.886;2022-10-13T05:18:57;11.40;53.00
60965;DHT22;46834;51.100;6.886;2022-10-13T05:21:25;11.40;52.30
60965;DHT22;46834;51.100;6.886;2022-10-13T05:23:53;11.50;52.50
60965;DHT22;46834;51.100;6.886;2022-10-13T05:26:22;11.50;52.50
60965;DHT22;46834;51.100;6.886;2022-10-13T05:28:54;11.50;52.50
60965;DHT22;46834;51.100;6.886;2022-10-13T05:31:25;11.50;52.50
60965;DHT22;46834;51.100;6.886;2022-10-13T05:33:52;11.50;52.50
60965;DHT22;46834;51.100;6.886;2022-10-13T05:36:32;11.50;52.40
60965;DHT22;46834;51.100;6.886;2022-10-13T05:39:01;11.50;52.70
60965;DHT22;46834;51.100;6.886;2022-10-13T05:41:29;11.50;52.40
60965;DHT22;46834;51.100;6.886;2022-10-13T05:44:05;11.50;52.40
60965;DHT22;46834;51.100;6.886;2022-10-13T05:46:32;11.50;52.50
60965;DHT22;46834;51.100;6.886;2022-10-13T05:48:58;11.60;52.50
60965;DHT22;46834;51.100;6.886;2022-10-13T05:51:27;11.60;52.40
60965;DHT22;46834;51.100;6.886;2022-10-13T05:54:14;11.60;52.50
60965;DHT22;46834;51.100;6.886;2022-10-13T05:56:45;11.60;52.70
60965;DHT22;46834;51.100;6.886;2022-10-13T05:59:20;11.60;52.50
60965;DHT22;46834;51.100;6.886;2022-10-13T06:01:47;11.60;52.40
60965;DHT22;46834;51.100;6.886;2022-10-13T06:04:20;11.60;52.40
60965;DHT22;46834;51.100;6.886;2022-10-13T06:06:51;11.60;52.60
60965;DHT22;46834;51.100;6.886;2022-10-13T06:09:17;11.60;52.40
60965;DHT22;46834;51.100;6.886;2022-10-13T06:11:43;11.60;52.40
60965;DHT22;46834;51.100;6.886;2022-10-13T06:14:08;11.60;52.50
60965;DHT22;46834;51.100;6.886;2022-10-13T06:16:35;11.60;52.40
60965;DHT22;46834;51.100;6.886;2022-10-13T06:19:02;11.60;52.50
60965;DHT22;46834;51.100;6.886;2022-10-13T06:21:28;11.60;52.50
60965;DHT22;46834;51.100;6.886;2022-10-13T06:23:54;11.50;52.80
60965;DHT22;46834;51.100;6.886;2022-10-13T06:26:19;11.50;52.70
60965;DHT22;46834;51.100;6.886;2022-10-13T06:28:45;11.50;52.60
60965;DHT22;46834;51.100;6.886;2022-10-13T06:31:10;11.40;53.60
60965;DHT22;46834;51.100;6.886;2022-10-13T06:33:36;11.50;53.30
60965;DHT22;46834;51.100;6.886;2022-10-13T06:36:04;11.50;53.10
60965;DHT22;46834;51.100;6.886;2022-10-13T06:38:30;11.50;52.90
60965;DHT22;46834;51.100;6.886;2022-10-13T06:41:01;11.60;52.90
60965;DHT22;46834;51.100;6.886;2022-10-13T06:43:28;11.60;52.90
60965;DHT22;46834;51.100;6.886;2022-10-13T06:45:57;11.60;52.70
60965;DHT22;46834;51.100;6.886;2022-10-13T06:48:24;11.60;52.70
60965;DHT22;46834;51.100;6.886;2022-10-13T06:50:50;11.60;52.60
60965;DHT22;46834;51.100;6.886;2022-10-13T06:53:16;11.70;52.70
60965;DHT22;46834;51.100;6.886;2022-10-13T06:55:42;11.70;53.20
60965;DHT22;46834;51.100;6.886;2022-10-13T06:58:08;11.70;52.70
60965;DHT22;46834;51.100;6.886;2022-10-13T07:00:35;11.70;52.70
60965;DHT22;46834;51.100;6.886;2022-10-13T07:03:02;11.70;52.70
60965;DHT22;46834;51.100;6.886;2022-10-13T07:05:28;11.70;52.70
60965;DHT22;46834;51.100;6.886;2022-10-13T07:07:54;11.70;52.70
60965;DHT22;46834;51.100;6.886;2022-10-13T07:10:20;11.70;52.80
60965;DHT22;46834;51.100;6.886;2022-10-13T07:12:45;11.80;52.90
60965;DHT22;46834;51.100;6.886;2022-10-13T07:15:11;11.80;53.00
60965;DHT22;46834;51.100;6.886;2022-10-13T07:17:37;11.80;53.00
60965;DHT22;46834;51.100;6.886;2022-10-13T07:20:04;11.90;53.00
60965;DHT22;46834;51.100;6.886;2022-10-13T07:22:30;11.90;53.00
60965;DHT22;46834;51.100;6.886;2022-10-13T07:24:56;12.00;53.10
60965;DHT22;46834;51.100;6.886;2022-10-13T07:27:22;11.90;53.50
60965;DHT22;46834;51.100;6.886;2022-10-13T07:29:48;12.00;53.40
60965;DHT22;46834;51.100;6.886;2022-10-13T07:32:14;12.10;53.30
60965;DHT22;46834;51.100;6.886;2022-10-13T07:34:40;12.20;53.30
60965;DHT22;46834;51.100;6.886;2022-10-13T07:37:07;12.20;53.10
60965;DHT22;46834;51.100;6.886;2022-10-13T07:39:32;12.30;53.10
60965;DHT22;46834;51.100;6.886;2022-10-13T07:41:58;12.30;53.00
60965;DHT22;46834;51.100;6.886;2022-10-13T07:44:24;12.40;53.00
60965;DHT22;46834;51.100;6.886;2022-10-13T07:46:50;12.40;52.90
60965;DHT22;46834;51.100;6.886;2022-10-13T07:49:15;12.40;52.80
60965;DHT22;46834;51.100;6.886;2022-10-13T07:51:41;12.50;52.90
60965;DHT22;46834;51.100;6.886;2022-10-13T07:54:08;12.30;53.30
60965;DHT22;46834;51.100;6.886;2022-10-13T07:56:34;12.30;53.10
60965;DHT22;46834;51.100;6.886;2022-10-13T07:59:01;12.40;53.10
60965;DHT22;46834;51.100;6.886;2022-10-13T08:01:29;12.40;53.10
60965;DHT22;46834;51.100;6.886;2022-10-13T08:03:55;12.50;53.10
60965;DHT22;46834;51.100;6.886;2022-10-13T08:06:21;12.50;53.00
60965;DHT22;46834;51.100;6.886;2022-10-13T08:08:47;12.50;52.90
60965;DHT22;46834;51.100;6.886;2022-10-13T08:11:14;12.60;52.90
60965;DHT22;46834;51.100;6.886;2022-10-13T08:13:41;12.60;52.90
60965;DHT22;46834;51.100;6.886;2022-10-13T08:16:07;12.70;53.00
60965;DHT22;46834;51.100;6.886;2022-10-13T08:18:32;12.70;53.00
60965;DHT22;46834;51.100;6.886;2022-10-13T08:21:00;12.70;53.00
60965;DHT22;46834;51.100;6.886;2022-10-13T08:23:27;12.80;53.00
60965;DHT22;46834;51.100;6.886;2022-10-13T08:25:53;12.90;53.10
60965;DHT22;46834;51.100;6.886;2022-10-13T08:28:25;12.90;53.00
60965;DHT22;46834;51.100;6.886;2022-10-13T08:30:56;12.90;52.90
60965;DHT22;46834;51.100;6.886;2022-10-13T08:33:22;13.00;52.90
60965;DHT22;46834;51.100;6.886;2022-10-13T08:35:49;13.00;52.80
60965;DHT22;46834;51.100;6.886;2022-10-13T08:38:15;12.90;53.20
60965;DHT22;46834;51.100;6.886;2022-10-13T08:40:46;12.90;53.20
60965;DHT22;46834;51.100;6.886;2022-10-13T08:43:16;12.80;53.60
60965;DHT22;46834;51.100;6.886;2022-10-13T08:45:45;12.90;53.50
60965;DHT22;46834;51.100;6.886;2022-10-13T08:48:20;13.00;53.50
60965;DHT22;46834;51.100;6.886;2022-10-13T08:50:51;13.10;53.30
60965;DHT22;46834;51.100;6.886;2022-10-13T08:53:29;13.20;53.30
60965;DHT22;46834;51.100;6.886;2022-10-13T08:56:02;13.20;53.30
60965;DHT22;46834;51.100;6.886;2022-10-13T08:58:35;13.30;53.30
60965;DHT22;46834;51.100;6.886;2022-10-13T09:01:19;13.30;53.50
60965;DHT22;46834;51.100;6.886;2022-10-13T09:04:15;13.30;53.50
60965;DHT22;46834;51.100;6.886;2022-10-13T09:06:52;13.50;53.40
60965;DHT22;46834;51.100;6.886;2022-10-13T09:09:23;13.60;53.40
60965;DHT22;46834;51.100;6.886;2022-10-13T09:11:50;13.70;53.20
60965;DHT22;46834;51.100;6.886;2022-10-13T09:16:54;13.80;53.00
60965;DHT22;46834;51.100;6.886;2022-10-13T09:19:30;13.90;53.10
60965;DHT22;46834;51.100;6.886;2022-10-13T09:22:26;14.00;53.10
60965;DHT22;46834;51.100;6.886;2022-10-13T09:27:55;14.10;53.00
60965;DHT22;46834;51.100;6.886;2022-10-13T09:30:40;14.20;53.10
60965;DHT22;46834;51.100;6.886;2022-10-13T09:35:45;14.40;53.30
60965;DHT22;46834;51.100;6.886;2022-10-13T09:38:35;14.50;53.30
60965;DHT22;46834;51.100;6.886;2022-10-13T09:46:29;14.90;53.20
60965;DHT22;46834;51.100;6.886;2022-10-13T09:54:49;15.20;53.00
60965;DHT22;46834;51.100;6.886;2022-10-13T10:00:19;15.40;52.80
60965;DHT22;46834;51.100;6.886;2022-10-13T10:02:56;15.50;52.80
60965;DHT22;46834;51.100;6.886;2022-10-13T10:05:40;15.40;52.30
60965;DHT22;46834;51.100;6.886;2022-10-13T10:11:14;15.70;53.20
60965;DHT22;46834;51.100;6.886;2022-10-13T10:13:43;16.00;53.40
60965;DHT22;46834;51.100;6.886;2022-10-13T10:16:22;16.20;53.50
60965;DHT22;46834;51.100;6.886;2022-10-13T10:19:05;16.40;53.00
60965;DHT22;46834;51.100;6.886;2022-10-13T10:21:59;16.50;52.40
60965;DHT22;46834;51.100;6.886;2022-10-13T10:24:51;16.60;52.00
60965;DHT22;46834;51.100;6.886;2022-10-13T10:27:37;16.70;51.90
60965;DHT22;46834;51.100;6.886;2022-10-13T10:30:16;16.80;52.00
60965;DHT22;46834;51.100;6.886;2022-10-13T10:32:53;16.70;51.80
60965;DHT22;46834;51.100;6.886;2022-10-13T10:36:06;16.70;51.70
60965;DHT22;46834;51.100;6.886;2022-10-13T10:38:55;16.70;51.00
60965;DHT22;46834;51.100;6.886;2022-10-13T10:41:56;16.60;51.10
60965;DHT22;46834;51.100;6.886;2022-10-13T10:44:45;16.70;51.10
60965;DHT22;46834;51.100;6.886;2022-10-13T10:47:28;16.30;50.70
60965;DHT22;46834;51.100;6.886;2022-10-13T10:50:05;16.30;50.80
60965;DHT22;46834;51.100;6.886;2022-10-13T10:55:31;16.20;51.00
60965;DHT22;46834;51.100;6.886;2022-10-13T11:01:04;16.30;51.30
60965;DHT22;46834;51.100;6.886;2022-10-13T11:03:52;16.40;51.10
60965;DHT22;46834;51.100;6.886;2022-10-13T11:06:34;16.40;51.20
60965;DHT22;46834;51.100;6.886;2022-10-13T11:09:03;16.50;51.10
60965;DHT22;46834;51.100;6.886;2022-10-13T11:11:35;16.60;51.40
60965;DHT22;46834;51.100;6.886;2022-10-13T11:16:34;16.60;51.30
60965;DHT22;46834;51.100;6.886;2022-10-13T11:19:35;16.60;51.10
60965;DHT22;46834;51.100;6.886;2022-10-13T11:43:52;16.90;51.00
60965;DHT22;46834;51.100;6.886;2022-10-13T11:47:08;16.80;51.10
60965;DHT22;46834;51.100;6.886;2022-10-13T11:50:02;16.90;51.20
60965;DHT22;46834;51.100;6.886;2022-10-13T11:55:51;16.80;51.10
60965;DHT22;46834;51.100;6.886;2022-10-13T11:58:27;16.80;51.20
60965;DHT22;46834;51.100;6.886;2022-10-13T12:01:04;16.70;51.20
60965;DHT22;46834;51.100;6.886;2022-10-13T12:03:38;16.70;51.20
60965;DHT22;46834;51.100;6.886;2022-10-13T12:06:29;16.70;51.30
60965;DHT22;46834;51.100;6.886;2022-10-13T12:09:01;16.70;51.30
60965;DHT22;46834;51.100;6.886;2022-10-13T12:11:34;16.60;51.10
60965;DHT22;46834;51.100;6.886;2022-10-13T12:14:06;16.60;51.20
60965;DHT22;46834;51.100;6.886;2022-10-13T12:16:54;16.70;51.40
60965;DHT22;46834;51.100;6.886;2022-10-13T12:19:24;16.60;51.30
60965;DHT22;46834;51.100;6.886;2022-10-13T12:21:54;16.60;51.50
60965;DHT22;46834;51.100;6.886;2022-10-13T12:24:24;16.60;51.60
60965;DHT22;46834;51.100;6.886;2022-10-13T12:26:52;16.60;51.70
60965;DHT22;46834;51.100;6.886;2022-10-13T12:29:23;16.60;51.80
60965;DHT22;46834;51.100;6.886;2022-10-13T12:31:51;16.60;51.80
60965;DHT22;46834;51.100;6.886;2022-10-13T12:34:29;16.60;51.90
60965;DHT22;46834;51.100;6.886;2022-10-13T12:36:58;16.70;52.00
60965;DHT22;46834;51.100;6.886;2022-10-13T12:39:28;16.80;52.10
60965;DHT22;46834;51.100;6.886;2022-10-13T12:41:56;16.80;52.10
60965;DHT22;46834;51.100;6.886;2022-10-13T12:44:30;16.90;52.20
60965;DHT22;46834;51.100;6.886;2022-10-13T12:46:58;16.80;52.10
60965;DHT22;46834;51.100;6.886;2022-10-13T12:49:33;16.90;52.20
60965;DHT22;46834;51.100;6.886;2022-10-13T12:52:11;16.90;52.20
60965;DHT22;46834;51.100;6.886;2022-10-13T12:54:52;17.00;52.30
60965;DHT22;46834;51.100;6.886;2022-10-13T12:57:25;17.10;52.50
60965;DHT22;46834;51.100;6.886;2022-10-13T13:00:02;17.10;52.50
60965;DHT22;46834;51.100;6.886;2022-10-13T13:02:31;17.20;52.50
60965;DHT22;46834;51.100;6.886;2022-10-13T13:04:57;17.20;52.40
60965;DHT22;46834;51.100;6.886;2022-10-13T13:07:31;17.30;52.40
60965;DHT22;46834;51.100;6.886;2022-10-13T13:10:18;17.30;52.40
60965;DHT22;46834;51.100;6.886;2022-10-13T13:12:47;17.30;52.20
60965;DHT22;46834;51.100;6.886;2022-10-13T13:17:45;17.30;52.10
60965;DHT22;46834;51.100;6.886;2022-10-13T13:20:30;17.30;51.90
60965;DHT22;46834;51.100;6.886;2022-10-13T13:22:58;17.30;51.90
60965;DHT22;46834;51.100;6.886;2022-10-13T13:25:25;17.20;51.80
60965;DHT22;46834;51.100;6.886;2022-10-13T13:27:51;17.10;51.80
60965;DHT22;46834;51.100;6.886;2022-10-13T13:30:20;17.10;51.90
60965;DHT22;46834;51.100;6.886;2022-10-13T13:32:47;17.10;52.00
60965;DHT22;46834;51.100;6.886;2022-10-13T13:35:14;17.10;52.00
60965;DHT22;46834;51.100;6.886;2022-10-13T13:37:43;17.00;52.00
60965;DHT22;46834;51.100;6.886;2022-10-13T13:40:20;17.00;52.10
60965;DHT22;46834;51.100;6.886;2022-10-13T13:42:48;17.10;52.20
60965;DHT22;46834;51.100;6.886;2022-10-13T13:45:15;17.00;52.10
60965;DHT22;46834;51.100;6.886;2022-10-13T13:47:43;17.00;52.10
60965;DHT22;46834;51.100;6.886;2022-10-13T13:50:21;17.00;52.70
60965;DHT22;46834;51.100;6.886;2022-10-13T13:52:49;17.00;52.20
60965;DHT22;46834;51.100;6.886;2022-10-13T13:55:15;16.90;52.10
60965;DHT22;46834;51.100;6.886;2022-10-13T13:57:42;16.90;52.20
60965;DHT22;46834;51.100;6.886;2022-10-13T14:00:10;16.80;52.10
60965;DHT22;46834;51.100;6.886;2022-10-13T14:02:37;16.80;52.20
60965;DHT22;46834;51.100;6.886;2022-10-13T14:05:04;16.80;52.20
60965;DHT22;46834;51.100;6.886;2022-10-13T14:07:30;16.80;52.20
60965;DHT22;46834;51.100;6.886;2022-10-13T14:09:56;16.80;52.20
60965;DHT22;46834;51.100;6.886;2022-10-13T14:12:22;16.70;52.20
60965;DHT22;46834;51.100;6.886;2022-10-13T14:14:47;16.70;52.30
60965;DHT22;46834;51.100;6.886;2022-10-13T14:17:13;16.70;52.20
60965;DHT22;46834;51.100;6.886;2022-10-13T14:19:40;16.70;52.30
60965;DHT22;46834;51.100;6.886;2022-10-13T14:22:06;16.70;52.20
60965;DHT22;46834;51.100;6.886;2022-10-13T14:24:32;16.70;52.20
60965;DHT22;46834;51.100;6.886;2022-10-13T14:26:58;16.60;52.20
60965;DHT22;46834;51.100;6.886;2022-10-13T14:29:24;16.60;52.30
60965;DHT22;46834;51.100;6.886;2022-10-13T14:31:50;16.60;52.40
60965;DHT22;46834;51.100;6.886;2022-10-13T14:34:16;16.60;52.60
60965;DHT22;46834;51.100;6.886;2022-10-13T14:36:41;16.60;52.60
60965;DHT22;46834;51.100;6.886;2022-10-13T14:39:07;16.60;52.70
60965;DHT22;46834;51.100;6.886;2022-10-13T14:41:33;16.50;52.60
60965;DHT22;46834;51.100;6.886;2022-10-13T14:43:58;16.60;52.80
60965;DHT22;46834;51.100;6.886;2022-10-13T14:46:24;16.60;53.50
60965;DHT22;46834;51.100;6.886;2022-10-13T14:48:50;16.60;52.90
60965;DHT22;46834;51.100;6.886;2022-10-13T14:51:16;16.60;52.90
60965;DHT22;46834;51.100;6.886;2022-10-13T14:53:43;16.60;53.50
60965;DHT22;46834;51.100;6.886;2022-10-13T14:56:28;16.70;53.00
60965;DHT22;46834;51.100;6.886;2022-10-13T14:59:03;16.60;53.20
60965;DHT22;46834;51.100;6.886;2022-10-13T15:01:30;16.60;53.20
60965;DHT22;46834;51.100;6.886;2022-10-13T15:03:58;16.60;53.00
60965;DHT22;46834;51.100;6.886;2022-10-13T15:06:24;16.50;52.90
60965;DHT22;46834;51.100;6.886;2022-10-13T15:08:51;16.60;53.10
60965;DHT22;46834;51.100;6.886;2022-10-13T15:11:18;16.50;53.10
60965;DHT22;46834;51.100;6.886;2022-10-13T15:13:46;16.50;53.10
60965;DHT22;46834;51.100;6.886;2022-10-13T15:16:15;16.50;53.20
60965;DHT22;46834;51.100;6.886;2022-10-13T15:18:43;16.40;53.20
60965;DHT22;46834;51.100;6.886;2022-10-13T15:21:08;16.50;53.20
60965;DHT22;46834;51.100;6.886;2022-10-13T15:23:34;16.40;53.20
60965;DHT22;46834;51.100;6.886;2022-10-13T15:26:01;16.40;53.30
60965;DHT22;46834;51.100;6.886;2022-10-13T15:28:29;16.40;53.30
60965;DHT22;46834;51.100;6.886;2022-10-13T15:31:02;16.40;53.40
60965;DHT22;46834;51.100;6.886;2022-10-13T15:33:29;16.30;53.20
60965;DHT22;46834;51.100;6.886;2022-10-13T15:35:55;16.30;53.30
60965;DHT22;46834;51.100;6.886;2022-10-13T15:38:21;16.30;53.30
60965;DHT22;46834;51.100;6.886;2022-10-13T15:40:48;16.20;53.20
60965;DHT22;46834;51.100;6.886;2022-10-13T15:43:15;16.20;53.30
60965;DHT22;46834;51.100;6.886;2022-10-13T15:45:41;16.20;53.40
60965;DHT22;46834;51.100;6.886;2022-10-13T15:48:08;16.10;53.30
60965;DHT22;46834;51.100;6.886;2022-10-13T15:50:39;16.10;53.30
60965;DHT22;46834;51.100;6.886;2022-10-13T15:53:05;16.10;53.50
60965;DHT22;46834;51.100;6.886;2022-10-13T15:55:32;16.00;53.40
60965;DHT22;46834;51.100;6.886;2022-10-13T15:57:57;16.00;53.40
60965;DHT22;46834;51.100;6.886;2022-10-13T16:00:23;16.00;53.50
60965;DHT22;46834;51.100;6.886;2022-10-13T16:02:50;15.90;53.40
60965;DHT22;46834;51.100;6.886;2022-10-13T16:05:17;15.90;53.50
60965;DHT22;46834;51.100;6.886;2022-10-13T16:07:43;15.90;53.60
60965;DHT22;46834;51.100;6.886;2022-10-13T16:10:10;15.80;54.10
60965;DHT22;46834;51.100;6.886;2022-10-13T16:12:37;15.80;53.60
60965;DHT22;46834;51.100;6.886;2022-10-13T16:15:05;15.80;53.60
60965;DHT22;46834;51.100;6.886;2022-10-13T16:17:31;15.70;53.60
60965;DHT22;46834;51.100;6.886;2022-10-13T16:19:58;15.70;53.60
60965;DHT22;46834;51.100;6.886;2022-10-13T16:22:23;15.70;53.70
60965;DHT22;46834;51.100;6.886;2022-10-13T16:24:49;15.70;53.70
60965;DHT22;46834;51.100;6.886;2022-10-13T16:27:15;15.70;53.70
60965;DHT22;46834;51.100;6.886;2022-10-13T16:29:41;15.60;53.70
60965;DHT22;46834;51.100;6.886;2022-10-13T16:32:06;15.60;53.70
60965;DHT22;46834;51.100;6.886;2022-10-13T16:34:32;15.60;53.80
60965;DHT22;46834;51.100;6.886;2022-10-13T16:36:58;15.60;53.80
60965;DHT22;46834;51.100;6.886;2022-10-13T16:39:24;15.50;53.80
60965;DHT22;46834;51.100;6.886;2022-10-13T16:41:51;15.50;53.80
60965;DHT22;46834;51.100;6.886;2022-10-13T16:44:17;15.50;53.90
60965;DHT22;46834;51.100;6.886;2022-10-13T16:46:43;15.50;54.00
60965;DHT22;46834;51.100;6.886;2022-10-13T16:49:09;15.40;54.00
60965;DHT22;46834;51.100;6.886;2022-10-13T16:51:36;15.40;54.00
60965;DHT22;46834;51.100;6.886;2022-10-13T16:54:01;15.40;54.60
60965;DHT22;46834;51.100;6.886;2022-10-13T16:56:28;15.40;54.10
60965;DHT22;46834;51.100;6.886;2022-10-13T16:58:56;15.40;54.20
60965;DHT22;46834;51.100;6.886;2022-10-13T17:01:24;15.40;54.30
60965;DHT22;46834;51.100;6.886;2022-10-13T17:03:50;15.40;54.20
60965;DHT22;46834;51.100;6.886;2022-10-13T17:06:18;15.40;54.30